sensor_id;sensor_type;location;lat;lon;timestamp;pressure;altitude;pressure_sealevel;temperature
15062;BMP180;7630;50.306;8.566;2022-11-25T00:02:57;97617.00;;;10.00
15062;BMP180;7630;50.306;8.566;2022-11-25T00:06:59;97615.00;;;10.20
15062;BMP180;7630;50.306;8.566;2022-11-25T00:11:01;97622.00;;;10.10
15062;BMP180;7630;50.306;8.566;2022-11-25T00:15:02;97296.00;;;9.70
15062;BMP180;7630;50.306;8.566;2022-11-25T00:19:04;97612.00;;;9.70
15062;BMP180;7630;50.306;8.566;2022-11-25T00:23:05;97605.00;;;9.80
15062;BMP180;7630;50.306;8.566;2022-11-25T00:27:06;97601.00;;;10.20
15062;BMP180;7630;50.306;8.566;2022-11-25T00:31:13;97598.00;;;10.10
15062;BMP180;7630;50.306;8.566;2022-11-25T00:35:11;97612.00;;;9.90
15062;BMP180;7630;50.306;8.566;2022-11-25T00:39:15;97604.00;;;10.00
15062;BMP180;7630;50.306;8.566;2022-11-25T00:43:16;97601.00;;;10.00
15062;BMP180;7630;50.306;8.566;2022-11-25T00:47:36;97617.00;;;10.30
15062;BMP180;7630;50.306;8.566;2022-11-25T00:51:37;97606.00;;;10.20
15062;BMP180;7630;50.306;8.566;2022-11-25T00:55:38;97613.00;;;10.20
15062;BMP180;7630;50.306;8.566;2022-11-25T00:59:58;97601.00;;;9.90
15062;BMP180;7630;50.306;8.566;2022-11-25T01:03:59;97608.00;;;8.70
15062;BMP180;7630;50.306;8.566;2022-11-25T01:08:01;97604.00;;;9.00
15062;BMP180;7630;50.306;8.566;2022-11-25T01:12:02;97615.00;;;8.50
15062;BMP180;7630;50.306;8.566;2022-11-25T01:16:05;97614.00;;;8.70
15062;BMP180;7630;50.306;8.566;2022-11-25T01:20:07;97607.00;;;9.40
15062;BMP180;7630;50.306;8.566;2022-11-25T01:24:11;97594.00;;;9.20
15062;BMP180;7630;50.306;8.566;2022-11-25T01:28:12;97607.00;;;9.10
15062;BMP180;7630;50.306;8.566;2022-11-25T01:32:14;97602.00;;;9.10
15062;BMP180;7630;50.306;8.566;2022-11-25T01:36:16;97604.00;;;8.80
15062;BMP180;7630;50.306;8.566;2022-11-25T01:40:18;97605.00;;;9.10
15062;BMP180;7630;50.306;8.566;2022-11-25T01:44:22;97611.00;;;9.40
15062;BMP180;7630;50.306;8.566;2022-11-25T01:48:31;97582.00;;;9.00
15062;BMP180;7630;50.306;8.566;2022-11-25T01:52:41;97595.00;;;9.00
15062;BMP180;7630;50.306;8.566;2022-11-25T01:56:55;97587.00;;;9.10
15062;BMP180;7630;50.306;8.566;2022-11-25T02:00:47;97587.00;;;8.60
15062;BMP180;7630;50.306;8.566;2022-11-25T02:04:51;97589.00;;;8.80
15062;BMP180;7630;50.306;8.566;2022-11-25T02:08:55;97590.00;;;9.10
15062;BMP180;7630;50.306;8.566;2022-11-25T02:12:58;97591.00;;;9.00
15062;BMP180;7630;50.306;8.566;2022-11-25T02:17:00;97589.00;;;8.40
15062;BMP180;7630;50.306;8.566;2022-11-25T02:21:02;97589.00;;;8.70
15062;BMP180;7630;50.306;8.566;2022-11-25T02:25:21;97593.00;;;9.40
15062;BMP180;7630;50.306;8.566;2022-11-25T02:29:23;97591.00;;;9.80
15062;BMP180;7630;50.306;8.566;2022-11-25T02:33:26;97576.00;;;9.60
15062;BMP180;7630;50.306;8.566;2022-11-25T02:37:28;97577.00;;;9.20
15062;BMP180;7630;50.306;8.566;2022-11-25T02:41:31;97574.00;;;9.70
15062;BMP180;7630;50.306;8.566;2022-11-25T02:49:47;97568.00;;;10.20
15062;BMP180;7630;50.306;8.566;2022-11-25T02:53:49;97568.00;;;10.30
15062;BMP180;7630;50.306;8.566;2022-11-25T02:57:51;97569.00;;;9.90
15062;BMP180;7630;50.306;8.566;2022-11-25T03:01:52;97569.00;;;9.60
15062;BMP180;7630;50.306;8.566;2022-11-25T03:05:54;97567.00;;;9.50
15062;BMP180;7630;50.306;8.566;2022-11-25T03:09:55;97571.00;;;8.60
15062;BMP180;7630;50.306;8.566;2022-11-25T03:13:57;97576.00;;;10.00
15062;BMP180;7630;50.306;8.566;2022-11-25T03:17:58;97583.00;;;9.70
15062;BMP180;7630;50.306;8.566;2022-11-25T03:21:59;97584.00;;;9.90
15062;BMP180;7630;50.306;8.566;2022-11-25T03:26:05;97579.00;;;9.40
15062;BMP180;7630;50.306;8.566;2022-11-25T03:30:09;97484.00;;;9.70
15062;BMP180;7630;50.306;8.566;2022-11-25T03:34:11;97531.00;;;10.00
15062;BMP180;7630;50.306;8.566;2022-11-25T03:38:12;97561.00;;;9.00
15062;BMP180;7630;50.306;8.566;2022-11-25T03:42:13;97564.00;;;9.20
15062;BMP180;7630;50.306;8.566;2022-11-25T03:46:14;97554.00;;;8.90
15062;BMP180;7630;50.306;8.566;2022-11-25T03:50:17;97563.00;;;9.30
15062;BMP180;7630;50.306;8.566;2022-11-25T03:54:19;97559.00;;;9.10
15062;BMP180;7630;50.306;8.566;2022-11-25T03:58:20;97566.00;;;9.00
15062;BMP180;7630;50.306;8.566;2022-11-25T04:02:21;97568.00;;;9.00
15062;BMP180;7630;50.306;8.566;2022-11-25T04:06:22;97574.00;;;9.40
15062;BMP180;7630;50.306;8.566;2022-11-25T04:10:23;97559.00;;;9.20
15062;BMP180;7630;50.306;8.566;2022-11-25T04:14:25;97560.00;;;9.70
15062;BMP180;7630;50.306;8.566;2022-11-25T04:18:26;97564.00;;;10.10
15062;BMP180;7630;50.306;8.566;2022-11-25T04:22:27;97561.00;;;9.30
15062;BMP180;7630;50.306;8.566;2022-11-25T04:26:28;97557.00;;;9.30
15062;BMP180;7630;50.306;8.566;2022-11-25T04:30:31;97552.00;;;8.80
15062;BMP180;7630;50.306;8.566;2022-11-25T04:34:33;97560.00;;;8.60
15062;BMP180;7630;50.306;8.566;2022-11-25T04:38:34;97572.00;;;8.60
15062;BMP180;7630;50.306;8.566;2022-11-25T04:42:36;97570.00;;;8.80
15062;BMP180;7630;50.306;8.566;2022-11-25T04:46:40;97566.00;;;9.10
15062;BMP180;7630;50.306;8.566;2022-11-25T04:50:42;97564.00;;;10.50
15062;BMP180;7630;50.306;8.566;2022-11-25T04:54:43;97558.00;;;9.70
15062;BMP180;7630;50.306;8.566;2022-11-25T04:58:45;97568.00;;;10.10
15062;BMP180;7630;50.306;8.566;2022-11-25T05:03:05;97559.00;;;10.10
15062;BMP180;7630;50.306;8.566;2022-11-25T05:07:07;97553.00;;;10.00
15062;BMP180;7630;50.306;8.566;2022-11-25T05:11:08;97560.00;;;9.70
15062;BMP180;7630;50.306;8.566;2022-11-25T05:15:09;97559.00;;;9.70
15062;BMP180;7630;50.306;8.566;2022-11-25T05:19:11;97558.00;;;8.50
15062;BMP180;7630;50.306;8.566;2022-11-25T05:23:12;97563.00;;;8.90
15062;BMP180;7630;50.306;8.566;2022-11-25T05:27:14;97564.00;;;9.20
15062;BMP180;7630;50.306;8.566;2022-11-25T05:31:15;97558.00;;;9.10
15062;BMP180;7630;50.306;8.566;2022-11-25T05:35:16;97550.00;;;9.50
15062;BMP180;7630;50.306;8.566;2022-11-25T05:39:19;97557.00;;;10.30
15062;BMP180;7630;50.306;8.566;2022-11-25T05:43:20;97561.00;;;10.30
15062;BMP180;7630;50.306;8.566;2022-11-25T05:47:21;97576.00;;;11.60
15062;BMP180;7630;50.306;8.566;2022-11-25T05:51:23;97569.00;;;9.90
15062;BMP180;7630;50.306;8.566;2022-11-25T05:55:25;97562.00;;;9.40
15062;BMP180;7630;50.306;8.566;2022-11-25T05:59:26;97572.00;;;10.20
15062;BMP180;7630;50.306;8.566;2022-11-25T06:03:28;97570.00;;;10.20
15062;BMP180;7630;50.306;8.566;2022-11-25T06:07:30;97561.00;;;10.30
15062;BMP180;7630;50.306;8.566;2022-11-25T06:11:31;97577.00;;;9.80
15062;BMP180;7630;50.306;8.566;2022-11-25T06:15:32;97588.00;;;9.50
15062;BMP180;7630;50.306;8.566;2022-11-25T06:19:34;97592.00;;;10.40
15062;BMP180;7630;50.306;8.566;2022-11-25T06:23:36;97592.00;;;10.70
15062;BMP180;7630;50.306;8.566;2022-11-25T06:27:37;97597.00;;;9.90
15062;BMP180;7630;50.306;8.566;2022-11-25T06:31:40;97593.00;;;9.90
15062;BMP180;7630;50.306;8.566;2022-11-25T06:35:41;97587.00;;;9.90
15062;BMP180;7630;50.306;8.566;2022-11-25T06:39:42;97599.00;;;10.00
15062;BMP180;7630;50.306;8.566;2022-11-25T06:43:43;97590.00;;;9.50
15062;BMP180;7630;50.306;8.566;2022-11-25T06:47:44;97595.00;;;9.30
15062;BMP180;7630;50.306;8.566;2022-11-25T06:51:48;97613.00;;;9.30
15062;BMP180;7630;50.306;8.566;2022-11-25T06:56:01;97623.00;;;9.40
15062;BMP180;7630;50.306;8.566;2022-11-25T07:00:04;97618.00;;;9.90
15062;BMP180;7630;50.306;8.566;2022-11-25T07:04:06;97510.00;;;9.80
15062;BMP180;7630;50.306;8.566;2022-11-25T07:08:07;97619.00;;;9.90
15062;BMP180;7630;50.306;8.566;2022-11-25T07:12:08;97617.00;;;10.30
15062;BMP180;7630;50.306;8.566;2022-11-25T07:16:10;97622.00;;;10.50
15062;BMP180;7630;50.306;8.566;2022-11-25T07:20:12;97621.00;;;10.30
15062;BMP180;7630;50.306;8.566;2022-11-25T07:24:14;97615.00;;;10.20
15062;BMP180;7630;50.306;8.566;2022-11-25T07:28:16;97624.00;;;10.00
15062;BMP180;7630;50.306;8.566;2022-11-25T07:32:17;97636.00;;;9.90
15062;BMP180;7630;50.306;8.566;2022-11-25T07:36:18;97645.00;;;10.70
15062;BMP180;7630;50.306;8.566;2022-11-25T07:40:19;97650.00;;;10.70
15062;BMP180;7630;50.306;8.566;2022-11-25T07:44:21;97650.00;;;10.80
15062;BMP180;7630;50.306;8.566;2022-11-25T07:48:22;97647.00;;;11.00
15062;BMP180;7630;50.306;8.566;2022-11-25T07:52:23;97652.00;;;9.70
15062;BMP180;7630;50.306;8.566;2022-11-25T07:56:25;97637.00;;;9.90
15062;BMP180;7630;50.306;8.566;2022-11-25T08:00:27;97658.00;;;9.60
15062;BMP180;7630;50.306;8.566;2022-11-25T08:04:28;97654.00;;;9.90
15062;BMP180;7630;50.306;8.566;2022-11-25T08:08:31;97659.00;;;9.80
15062;BMP180;7630;50.306;8.566;2022-11-25T08:12:32;97669.00;;;10.20
15062;BMP180;7630;50.306;8.566;2022-11-25T08:16:35;97670.00;;;10.50
15062;BMP180;7630;50.306;8.566;2022-11-25T08:20:36;97665.00;;;10.80
15062;BMP180;7630;50.306;8.566;2022-11-25T08:24:37;97665.00;;;10.80
15062;BMP180;7630;50.306;8.566;2022-11-25T08:28:40;97664.00;;;11.50
15062;BMP180;7630;50.306;8.566;2022-11-25T08:32:42;97656.00;;;11.40
15062;BMP180;7630;50.306;8.566;2022-11-25T08:36:43;97671.00;;;10.80
15062;BMP180;7630;50.306;8.566;2022-11-25T08:40:46;97673.00;;;11.00
15062;BMP180;7630;50.306;8.566;2022-11-25T08:44:52;97503.00;;;10.40
15062;BMP180;7630;50.306;8.566;2022-11-25T08:48:54;97701.00;;;11.10
15062;BMP180;7630;50.306;8.566;2022-11-25T08:52:56;97684.00;;;10.40
15062;BMP180;7630;50.306;8.566;2022-11-25T08:56:57;97702.00;;;11.00
15062;BMP180;7630;50.306;8.566;2022-11-25T09:01:00;97708.00;;;11.50
15062;BMP180;7630;50.306;8.566;2022-11-25T09:05:02;97701.00;;;11.30
15062;BMP180;7630;50.306;8.566;2022-11-25T09:09:04;97709.00;;;11.50
15062;BMP180;7630;50.306;8.566;2022-11-25T09:13:06;97707.00;;;11.20
15062;BMP180;7630;50.306;8.566;2022-11-25T09:17:09;97724.00;;;11.70
15062;BMP180;7630;50.306;8.566;2022-11-25T09:21:13;97726.00;;;11.00
15062;BMP180;7630;50.306;8.566;2022-11-25T09:25:15;97717.00;;;10.30
15062;BMP180;7630;50.306;8.566;2022-11-25T09:29:17;97728.00;;;11.30
15062;BMP180;7630;50.306;8.566;2022-11-25T09:33:18;97734.00;;;10.70
15062;BMP180;7630;50.306;8.566;2022-11-25T09:37:20;97742.00;;;11.60
15062;BMP180;7630;50.306;8.566;2022-11-25T09:41:42;97736.00;;;11.50
15062;BMP180;7630;50.306;8.566;2022-11-25T09:46:07;97747.00;;;11.50
15062;BMP180;7630;50.306;8.566;2022-11-25T09:55:10;97755.00;;;12.20
15062;BMP180;7630;50.306;8.566;2022-11-25T09:59:17;97746.00;;;12.50
15062;BMP180;7630;50.306;8.566;2022-11-25T10:03:43;97768.00;;;12.30
15062;BMP180;7630;50.306;8.566;2022-11-25T10:07:49;97758.00;;;12.20
15062;BMP180;7630;50.306;8.566;2022-11-25T10:11:57;97747.00;;;11.60
15062;BMP180;7630;50.306;8.566;2022-11-25T10:16:01;97773.00;;;10.70
15062;BMP180;7630;50.306;8.566;2022-11-25T10:20:27;97773.00;;;11.30
15062;BMP180;7630;50.306;8.566;2022-11-25T10:24:25;97771.00;;;11.30
15062;BMP180;7630;50.306;8.566;2022-11-25T10:28:32;97777.00;;;10.70
15062;BMP180;7630;50.306;8.566;2022-11-25T10:32:39;97776.00;;;11.20
15062;BMP180;7630;50.306;8.566;2022-11-25T10:36:40;97779.00;;;11.60
15062;BMP180;7630;50.306;8.566;2022-11-25T10:40:46;97782.00;;;11.20
15062;BMP180;7630;50.306;8.566;2022-11-25T10:44:49;97786.00;;;10.60
15062;BMP180;7630;50.306;8.566;2022-11-25T10:49:00;97787.00;;;10.10
15062;BMP180;7630;50.306;8.566;2022-11-25T10:53:12;97789.00;;;10.40
15062;BMP180;7630;50.306;8.566;2022-11-25T10:57:19;97796.00;;;11.30
15062;BMP180;7630;50.306;8.566;2022-11-25T11:01:23;97804.00;;;10.50
15062;BMP180;7630;50.306;8.566;2022-11-25T11:05:28;97806.00;;;11.30
15062;BMP180;7630;50.306;8.566;2022-11-25T11:09:36;97819.00;;;11.40
15062;BMP180;7630;50.306;8.566;2022-11-25T11:13:39;97806.00;;;10.80
15062;BMP180;7630;50.306;8.566;2022-11-25T11:17:40;97813.00;;;10.40
15062;BMP180;7630;50.306;8.566;2022-11-25T11:21:42;97814.00;;;10.50
15062;BMP180;7630;50.306;8.566;2022-11-25T11:25:57;97830.00;;;11.10
15062;BMP180;7630;50.306;8.566;2022-11-25T11:30:14;97828.00;;;11.70
15062;BMP180;7630;50.306;8.566;2022-11-25T11:38:55;97831.00;;;12.90
15062;BMP180;7630;50.306;8.566;2022-11-25T11:55:57;97843.00;;;13.50
15062;BMP180;7630;50.306;8.566;2022-11-25T12:00:12;97844.00;;;13.90
15062;BMP180;7630;50.306;8.566;2022-11-25T12:04:42;97853.00;;;15.30
15062;BMP180;7630;50.306;8.566;2022-11-25T12:08:53;97859.00;;;15.20
15062;BMP180;7630;50.306;8.566;2022-11-25T12:17:29;97870.00;;;13.80
15062;BMP180;7630;50.306;8.566;2022-11-25T12:25:56;97868.00;;;13.10
15062;BMP180;7630;50.306;8.566;2022-11-25T12:34:23;97884.00;;;11.80
15062;BMP180;7630;50.306;8.566;2022-11-25T12:38:47;97888.00;;;11.60
15062;BMP180;7630;50.306;8.566;2022-11-25T12:42:50;97892.00;;;12.50
15062;BMP180;7630;50.306;8.566;2022-11-25T12:46:54;97891.00;;;12.60
15062;BMP180;7630;50.306;8.566;2022-11-25T12:55:19;97899.00;;;11.90
15062;BMP180;7630;50.306;8.566;2022-11-25T13:16:24;97846.00;;;13.50
15062;BMP180;7630;50.306;8.566;2022-11-25T13:24:39;97929.00;;;13.00
15062;BMP180;7630;50.306;8.566;2022-11-25T13:28:41;97939.00;;;12.00
15062;BMP180;7630;50.306;8.566;2022-11-25T13:32:43;97953.00;;;12.80
15062;BMP180;7630;50.306;8.566;2022-11-25T13:36:49;97958.00;;;13.40
15062;BMP180;7630;50.306;8.566;2022-11-25T13:45:27;97964.00;;;13.30
15062;BMP180;7630;50.306;8.566;2022-11-25T13:53:39;97980.00;;;13.30
15062;BMP180;7630;50.306;8.566;2022-11-25T13:57:46;97977.00;;;13.70
15062;BMP180;7630;50.306;8.566;2022-11-25T14:07:01;97994.00;;;14.80
15062;BMP180;7630;50.306;8.566;2022-11-25T14:15:04;97985.00;;;14.20
15062;BMP180;7630;50.306;8.566;2022-11-25T14:27:47;98014.00;;;14.70
15062;BMP180;7630;50.306;8.566;2022-11-25T14:31:53;98008.00;;;14.50
15062;BMP180;7630;50.306;8.566;2022-11-25T14:35:59;98016.00;;;13.50
15062;BMP180;7630;50.306;8.566;2022-11-25T14:40:06;98022.00;;;14.20
15062;BMP180;7630;50.306;8.566;2022-11-25T14:44:15;98033.00;;;13.60
15062;BMP180;7630;50.306;8.566;2022-11-25T14:48:19;98040.00;;;13.40
15062;BMP180;7630;50.306;8.566;2022-11-25T14:52:31;98041.00;;;13.10
15062;BMP180;7630;50.306;8.566;2022-11-25T14:56:33;98066.00;;;13.40
15062;BMP180;7630;50.306;8.566;2022-11-25T15:00:48;98054.00;;;13.40
15062;BMP180;7630;50.306;8.566;2022-11-25T15:04:40;98049.00;;;13.80
15062;BMP180;7630;50.306;8.566;2022-11-25T15:08:44;98055.00;;;13.80
15062;BMP180;7630;50.306;8.566;2022-11-25T15:12:45;98054.00;;;13.30
15062;BMP180;7630;50.306;8.566;2022-11-25T15:16:49;98059.00;;;13.40
15062;BMP180;7630;50.306;8.566;2022-11-25T15:20:58;98069.00;;;13.70
15062;BMP180;7630;50.306;8.566;2022-11-25T15:25:08;98066.00;;;13.20
15062;BMP180;7630;50.306;8.566;2022-11-25T15:29:11;98066.00;;;13.20
15062;BMP180;7630;50.306;8.566;2022-11-25T15:33:13;98082.00;;;13.40
15062;BMP180;7630;50.306;8.566;2022-11-25T15:37:14;98084.00;;;13.50
15062;BMP180;7630;50.306;8.566;2022-11-25T15:41:29;98089.00;;;13.50
15062;BMP180;7630;50.306;8.566;2022-11-25T15:45:44;98096.00;;;13.70
15062;BMP180;7630;50.306;8.566;2022-11-25T15:49:59;98092.00;;;13.80
15062;BMP180;7630;50.306;8.566;2022-11-25T15:54:04;98105.00;;;12.90
15062;BMP180;7630;50.306;8.566;2022-11-25T15:58:20;98115.00;;;13.10
15062;BMP180;7630;50.306;8.566;2022-11-25T16:06:54;98113.00;;;13.00
15062;BMP180;7630;50.306;8.566;2022-11-25T16:11:14;98121.00;;;13.20
15062;BMP180;7630;50.306;8.566;2022-11-25T16:15:16;97709.00;;;12.50
15062;BMP180;7630;50.306;8.566;2022-11-25T16:19:19;98119.00;;;12.50
15062;BMP180;7630;50.306;8.566;2022-11-25T16:23:23;98126.00;;;12.40
15062;BMP180;7630;50.306;8.566;2022-11-25T16:27:26;98140.00;;;12.10
15062;BMP180;7630;50.306;8.566;2022-11-25T16:31:28;98139.00;;;12.10
15062;BMP180;7630;50.306;8.566;2022-11-25T16:35:29;98149.00;;;12.00
15062;BMP180;7630;50.306;8.566;2022-11-25T16:39:30;98148.00;;;11.90
15062;BMP180;7630;50.306;8.566;2022-11-25T16:43:31;98161.00;;;12.10
15062;BMP180;7630;50.306;8.566;2022-11-25T16:47:33;98158.00;;;11.90
15062;BMP180;7630;50.306;8.566;2022-11-25T16:51:34;98172.00;;;12.20
15062;BMP180;7630;50.306;8.566;2022-11-25T16:55:36;98169.00;;;12.10
15062;BMP180;7630;50.306;8.566;2022-11-25T16:59:41;98176.00;;;11.70
15062;BMP180;7630;50.306;8.566;2022-11-25T17:03:43;98198.00;;;11.80
15062;BMP180;7630;50.306;8.566;2022-11-25T17:07:44;98209.00;;;11.50
15062;BMP180;7630;50.306;8.566;2022-11-25T17:11:48;98205.00;;;11.90
15062;BMP180;7630;50.306;8.566;2022-11-25T17:15:52;98201.00;;;12.30
15062;BMP180;7630;50.306;8.566;2022-11-25T17:19:53;98199.00;;;11.50
15062;BMP180;7630;50.306;8.566;2022-11-25T17:23:59;98214.00;;;12.10
15062;BMP180;7630;50.306;8.566;2022-11-25T17:28:02;98220.00;;;12.00
15062;BMP180;7630;50.306;8.566;2022-11-25T17:32:04;98229.00;;;11.80
15062;BMP180;7630;50.306;8.566;2022-11-25T17:36:09;98228.00;;;11.20
15062;BMP180;7630;50.306;8.566;2022-11-25T17:40:11;98238.00;;;11.30
15062;BMP180;7630;50.306;8.566;2022-11-25T17:44:24;98241.00;;;11.90
15062;BMP180;7630;50.306;8.566;2022-11-25T17:48:26;98243.00;;;11.90
15062;BMP180;7630;50.306;8.566;2022-11-25T17:52:28;98252.00;;;11.60
15062;BMP180;7630;50.306;8.566;2022-11-25T17:56:30;98262.00;;;12.10
15062;BMP180;7630;50.306;8.566;2022-11-25T18:00:33;98258.00;;;12.10
15062;BMP180;7630;50.306;8.566;2022-11-25T18:04:34;98267.00;;;12.00
15062;BMP180;7630;50.306;8.566;2022-11-25T18:08:36;98270.00;;;11.70
15062;BMP180;7630;50.306;8.566;2022-11-25T18:12:38;98283.00;;;11.50
15062;BMP180;7630;50.306;8.566;2022-11-25T18:16:40;98290.00;;;11.50
15062;BMP180;7630;50.306;8.566;2022-11-25T18:20:42;98291.00;;;10.70
15062;BMP180;7630;50.306;8.566;2022-11-25T18:24:43;98298.00;;;10.30
15062;BMP180;7630;50.306;8.566;2022-11-25T18:28:45;98309.00;;;10.60
15062;BMP180;7630;50.306;8.566;2022-11-25T18:32:47;98222.00;;;10.30
15062;BMP180;7630;50.306;8.566;2022-11-25T18:36:49;98324.00;;;10.40
15062;BMP180;7630;50.306;8.566;2022-11-25T18:40:51;98332.00;;;10.40
15062;BMP180;7630;50.306;8.566;2022-11-25T18:44:54;98345.00;;;9.90
15062;BMP180;7630;50.306;8.566;2022-11-25T18:48:56;98350.00;;;10.10
15062;BMP180;7630;50.306;8.566;2022-11-25T18:52:57;98355.00;;;10.00
15062;BMP180;7630;50.306;8.566;2022-11-25T18:56:59;98359.00;;;10.10
15062;BMP180;7630;50.306;8.566;2022-11-25T19:01:03;98361.00;;;10.30
15062;BMP180;7630;50.306;8.566;2022-11-25T19:05:19;98370.00;;;10.20
15062;BMP180;7630;50.306;8.566;2022-11-25T19:09:21;98372.00;;;10.80
15062;BMP180;7630;50.306;8.566;2022-11-25T19:13:29;98387.00;;;10.30
15062;BMP180;7630;50.306;8.566;2022-11-25T19:17:31;98400.00;;;11.00
15062;BMP180;7630;50.306;8.566;2022-11-25T19:21:33;98382.00;;;11.20
15062;BMP180;7630;50.306;8.566;2022-11-25T19:25:34;98395.00;;;11.10
15062;BMP180;7630;50.306;8.566;2022-11-25T19:29:37;98385.00;;;10.80
15062;BMP180;7630;50.306;8.566;2022-11-25T19:33:42;98404.00;;;11.00
15062;BMP180;7630;50.306;8.566;2022-11-25T19:37:45;98404.00;;;10.90
15062;BMP180;7630;50.306;8.566;2022-11-25T19:41:47;98416.00;;;10.30
15062;BMP180;7630;50.306;8.566;2022-11-25T19:45:48;98421.00;;;10.20
15062;BMP180;7630;50.306;8.566;2022-11-25T19:49:52;98424.00;;;9.40
15062;BMP180;7630;50.306;8.566;2022-11-25T19:53:54;98421.00;;;10.30
15062;BMP180;7630;50.306;8.566;2022-11-25T19:57:56;98431.00;;;10.10
15062;BMP180;7630;50.306;8.566;2022-11-25T20:01:57;98436.00;;;9.60
15062;BMP180;7630;50.306;8.566;2022-11-25T20:05:59;98440.00;;;9.60
15062;BMP180;7630;50.306;8.566;2022-11-25T20:10:19;98453.00;;;9.60
15062;BMP180;7630;50.306;8.566;2022-11-25T20:14:20;98451.00;;;10.30
15062;BMP180;7630;50.306;8.566;2022-11-25T20:18:23;98460.00;;;9.90
15062;BMP180;7630;50.306;8.566;2022-11-25T20:22:28;98465.00;;;9.70
15062;BMP180;7630;50.306;8.566;2022-11-25T20:26:35;98469.00;;;9.90
15062;BMP180;7630;50.306;8.566;2022-11-25T20:30:37;98483.00;;;10.50
15062;BMP180;7630;50.306;8.566;2022-11-25T20:34:38;98493.00;;;10.60
15062;BMP180;7630;50.306;8.566;2022-11-25T20:38:48;98486.00;;;10.20
15062;BMP180;7630;50.306;8.566;2022-11-25T20:42:50;98493.00;;;9.70
15062;BMP180;7630;50.306;8.566;2022-11-25T20:46:51;98501.00;;;9.90
15062;BMP180;7630;50.306;8.566;2022-11-25T20:50:53;98510.00;;;9.90
15062;BMP180;7630;50.306;8.566;2022-11-25T20:54:55;98507.00;;;9.40
15062;BMP180;7630;50.306;8.566;2022-11-25T20:58:57;98497.00;;;9.50
15062;BMP180;7630;50.306;8.566;2022-11-25T21:02:58;98515.00;;;9.10
15062;BMP180;7630;50.306;8.566;2022-11-25T21:06:59;98520.00;;;9.80
15062;BMP180;7630;50.306;8.566;2022-11-25T21:11:01;98537.00;;;9.90
15062;BMP180;7630;50.306;8.566;2022-11-25T21:15:11;98529.00;;;9.70
15062;BMP180;7630;50.306;8.566;2022-11-25T21:19:07;98550.00;;;10.30
15062;BMP180;7630;50.306;8.566;2022-11-25T21:23:21;98551.00;;;10.40
15062;BMP180;7630;50.306;8.566;2022-11-25T21:27:14;98557.00;;;10.50
15062;BMP180;7630;50.306;8.566;2022-11-25T21:31:19;98550.00;;;10.20
15062;BMP180;7630;50.306;8.566;2022-11-25T21:35:23;98551.00;;;10.10
15062;BMP180;7630;50.306;8.566;2022-11-25T21:39:28;98558.00;;;9.60
15062;BMP180;7630;50.306;8.566;2022-11-25T21:43:32;98557.00;;;9.60
15062;BMP180;7630;50.306;8.566;2022-11-25T21:47:33;98566.00;;;9.60
15062;BMP180;7630;50.306;8.566;2022-11-25T21:51:35;98571.00;;;9.40
15062;BMP180;7630;50.306;8.566;2022-11-25T21:55:38;98571.00;;;9.30
15062;BMP180;7630;50.306;8.566;2022-11-25T21:59:39;98571.00;;;9.60
15062;BMP180;7630;50.306;8.566;2022-11-25T22:03:40;98584.00;;;9.30
15062;BMP180;7630;50.306;8.566;2022-11-25T22:07:42;98589.00;;;9.90
15062;BMP180;7630;50.306;8.566;2022-11-25T22:11:46;98582.00;;;9.60
15062;BMP180;7630;50.306;8.566;2022-11-25T22:15:50;98589.00;;;9.90
15062;BMP180;7630;50.306;8.566;2022-11-25T22:19:53;98597.00;;;10.20
15062;BMP180;7630;50.306;8.566;2022-11-25T22:23:54;98613.00;;;10.10
15062;BMP180;7630;50.306;8.566;2022-11-25T22:27:55;98615.00;;;10.30
15062;BMP180;7630;50.306;8.566;2022-11-25T22:31:57;98606.00;;;10.00
15062;BMP180;7630;50.306;8.566;2022-11-25T22:35:58;98619.00;;;10.10
15062;BMP180;7630;50.306;8.566;2022-11-25T22:40:00;98624.00;;;9.90
15062;BMP180;7630;50.306;8.566;2022-11-25T22:44:01;98624.00;;;9.90
15062;BMP180;7630;50.306;8.566;2022-11-25T22:48:03;98624.00;;;9.60
15062;BMP180;7630;50.306;8.566;2022-11-25T22:52:50;98647.00;;;9.90
15062;BMP180;7630;50.306;8.566;2022-11-25T22:56:15;98642.00;;;9.70
15062;BMP180;7630;50.306;8.566;2022-11-25T23:00:21;98641.00;;;10.10
15062;BMP180;7630;50.306;8.566;2022-11-25T23:04:22;98635.00;;;9.30
15062;BMP180;7630;50.306;8.566;2022-11-25T23:08:26;98650.00;;;9.40
15062;BMP180;7630;50.306;8.566;2022-11-25T23:12:28;98654.00;;;9.60
15062;BMP180;7630;50.306;8.566;2022-11-25T23:16:29;98657.00;;;10.10
15062;BMP180;7630;50.306;8.566;2022-11-25T23:20:33;98655.00;;;9.90
15062;BMP180;7630;50.306;8.566;2022-11-25T23:24:44;98666.00;;;10.40
15062;BMP180;7630;50.306;8.566;2022-11-25T23:28:42;98673.00;;;10.40
15062;BMP180;7630;50.306;8.566;2022-11-25T23:32:44;98681.00;;;10.70
15062;BMP180;7630;50.306;8.566;2022-11-25T23:36:48;98684.00;;;10.30
15062;BMP180;7630;50.306;8.566;2022-11-25T23:40:49;98679.00;;;10.30
15062;BMP180;7630;50.306;8.566;2022-11-25T23:44:50;98673.00;;;10.60
15062;BMP180;7630;50.306;8.566;2022-11-25T23:48:54;98681.00;;;10.70
15062;BMP180;7630;50.306;8.566;2022-11-25T23:53:05;98683.00;;;10.80
15062;BMP180;7630;50.306;8.566;2022-11-25T23:57:18;98691.00;;;10.30
